sensor_id;sensor_type;location;lat;lon;timestamp;P1;durP1;ratioP1;P2;durP2;ratioP2
2313;SDS011;42279;51.388;7.000;2023-04-29T00:00:24;39.70;;;24.10;;
2313;SDS011;42279;51.388;7.000;2023-04-29T00:02:51;48.15;;;32.20;;
2313;SDS011;42279;51.388;7.000;2023-04-29T00:05:17;45.27;;;27.33;;
2313;SDS011;42279;51.388;7.000;2023-04-29T00:07:43;48.00;;;30.00;;
2313;SDS011;42279;51.388;7.000;2023-04-29T00:10:09;49.40;;;28.23;;
2313;SDS011;42279;51.388;7.000;2023-04-29T00:12:38;43.20;;;26.27;;
2313;SDS011;42279;51.388;7.000;2023-04-29T00:15:05;44.93;;;25.70;;
2313;SDS011;42279;51.388;7.000;2023-04-29T00:17:32;40.87;;;26.10;;
2313;SDS011;42279;51.388;7.000;2023-04-29T00:19:59;47.80;;;27.17;;
2313;SDS011;42279;51.388;7.000;2023-04-29T00:22:25;39.87;;;26.17;;
2313;SDS011;42279;51.388;7.000;2023-04-29T00:24:51;41.80;;;26.60;;
2313;SDS011;42279;51.388;7.000;2023-04-29T00:27:17;39.80;;;22.53;;
2313;SDS011;42279;51.388;7.000;2023-04-29T00:29:43;46.63;;;28.47;;
2313;SDS011;42279;51.388;7.000;2023-04-29T00:32:10;39.60;;;24.70;;
2313;SDS011;42279;51.388;7.000;2023-04-29T00:34:36;41.53;;;26.37;;
2313;SDS011;42279;51.388;7.000;2023-04-29T00:37:02;38.57;;;26.60;;
2313;SDS011;42279;51.388;7.000;2023-04-29T00:39:28;43.37;;;27.17;;
2313;SDS011;42279;51.388;7.000;2023-04-29T00:41:54;48.67;;;28.23;;
2313;SDS011;42279;51.388;7.000;2023-04-29T00:44:20;47.77;;;27.33;;
2313;SDS011;42279;51.388;7.000;2023-04-29T00:46:46;46.67;;;26.43;;
2313;SDS011;42279;51.388;7.000;2023-04-29T00:49:12;47.43;;;26.80;;
2313;SDS011;42279;51.388;7.000;2023-04-29T00:51:39;54.33;;;26.40;;
2313;SDS011;42279;51.388;7.000;2023-04-29T00:54:06;48.50;;;30.85;;
2313;SDS011;42279;51.388;7.000;2023-04-29T00:56:33;52.83;;;28.93;;
2313;SDS011;42279;51.388;7.000;2023-04-29T00:59:08;56.90;;;30.17;;
2313;SDS011;42279;51.388;7.000;2023-04-29T01:01:39;55.10;;;31.53;;
2313;SDS011;42279;51.388;7.000;2023-04-29T01:04:08;56.83;;;31.20;;
2313;SDS011;42279;51.388;7.000;2023-04-29T01:06:57;56.83;;;29.53;;
2313;SDS011;42279;51.388;7.000;2023-04-29T01:09:31;46.43;;;25.93;;
2313;SDS011;42279;51.388;7.000;2023-04-29T01:14:30;60.27;;;29.63;;
2313;SDS011;42279;51.388;7.000;2023-04-29T01:16:59;62.47;;;31.00;;
2313;SDS011;42279;51.388;7.000;2023-04-29T01:21:52;56.00;;;30.80;;
2313;SDS011;42279;51.388;7.000;2023-04-29T01:24:18;57.50;;;30.33;;
2313;SDS011;42279;51.388;7.000;2023-04-29T01:26:46;57.77;;;28.80;;
2313;SDS011;42279;51.388;7.000;2023-04-29T01:32:03;62.00;;;31.63;;
2313;SDS011;42279;51.388;7.000;2023-04-29T01:34:42;51.57;;;30.33;;
2313;SDS011;42279;51.388;7.000;2023-04-29T01:37:13;58.90;;;32.40;;
2313;SDS011;42279;51.388;7.000;2023-04-29T01:39:44;64.17;;;30.30;;
2313;SDS011;42279;51.388;7.000;2023-04-29T01:44:37;60.13;;;32.80;;
2313;SDS011;42279;51.388;7.000;2023-04-29T01:47:04;48.57;;;28.10;;
2313;SDS011;42279;51.388;7.000;2023-04-29T01:49:33;59.43;;;31.73;;
2313;SDS011;42279;51.388;7.000;2023-04-29T01:52:00;56.93;;;29.90;;
2313;SDS011;42279;51.388;7.000;2023-04-29T01:54:26;58.22;;;34.83;;
2313;SDS011;42279;51.388;7.000;2023-04-29T01:56:52;51.57;;;27.87;;
2313;SDS011;42279;51.388;7.000;2023-04-29T01:59:19;56.53;;;28.90;;
2313;SDS011;42279;51.388;7.000;2023-04-29T02:01:45;58.70;;;30.80;;
2313;SDS011;42279;51.388;7.000;2023-04-29T02:04:11;69.67;;;35.43;;
2313;SDS011;42279;51.388;7.000;2023-04-29T02:06:37;76.77;;;33.43;;
2313;SDS011;42279;51.388;7.000;2023-04-29T02:09:03;75.80;;;34.77;;
2313;SDS011;42279;51.388;7.000;2023-04-29T02:11:29;88.60;;;41.72;;
2313;SDS011;42279;51.388;7.000;2023-04-29T02:13:55;72.47;;;34.53;;
2313;SDS011;42279;51.388;7.000;2023-04-29T02:16:21;71.63;;;33.07;;
2313;SDS011;42279;51.388;7.000;2023-04-29T02:18:47;87.73;;;34.80;;
2313;SDS011;42279;51.388;7.000;2023-04-29T02:21:21;100.47;;;45.80;;
2313;SDS011;42279;51.388;7.000;2023-04-29T02:23:47;97.50;;;38.40;;
2313;SDS011;42279;51.388;7.000;2023-04-29T02:26:14;105.13;;;46.65;;
2313;SDS011;42279;51.388;7.000;2023-04-29T02:28:40;81.23;;;33.87;;
2313;SDS011;42279;51.388;7.000;2023-04-29T02:31:06;84.30;;;37.57;;
2313;SDS011;42279;51.388;7.000;2023-04-29T02:33:32;88.20;;;40.87;;
2313;SDS011;42279;51.388;7.000;2023-04-29T02:35:58;96.13;;;41.50;;
2313;SDS011;42279;51.388;7.000;2023-04-29T02:38:24;96.17;;;37.27;;
2313;SDS011;42279;51.388;7.000;2023-04-29T02:40:50;89.83;;;34.97;;
2313;SDS011;42279;51.388;7.000;2023-04-29T02:43:16;81.50;;;37.50;;
2313;SDS011;42279;51.388;7.000;2023-04-29T02:45:42;79.13;;;37.30;;
2313;SDS011;42279;51.388;7.000;2023-04-29T02:48:11;87.43;;;39.90;;
2313;SDS011;42279;51.388;7.000;2023-04-29T02:50:37;77.70;;;33.87;;
2313;SDS011;42279;51.388;7.000;2023-04-29T02:53:03;70.77;;;32.87;;
2313;SDS011;42279;51.388;7.000;2023-04-29T02:55:29;61.07;;;31.07;;
2313;SDS011;42279;51.388;7.000;2023-04-29T02:57:55;68.60;;;33.53;;
2313;SDS011;42279;51.388;7.000;2023-04-29T03:00:21;66.77;;;33.37;;
2313;SDS011;42279;51.388;7.000;2023-04-29T03:02:48;59.60;;;32.50;;
2313;SDS011;42279;51.388;7.000;2023-04-29T03:05:14;59.80;;;30.10;;
2313;SDS011;42279;51.388;7.000;2023-04-29T03:07:40;56.60;;;28.37;;
2313;SDS011;42279;51.388;7.000;2023-04-29T03:10:06;62.27;;;29.43;;
2313;SDS011;42279;51.388;7.000;2023-04-29T03:12:32;50.07;;;29.20;;
2313;SDS011;42279;51.388;7.000;2023-04-29T03:14:59;59.75;;;33.17;;
2313;SDS011;42279;51.388;7.000;2023-04-29T03:17:25;51.57;;;29.17;;
2313;SDS011;42279;51.388;7.000;2023-04-29T03:19:51;55.27;;;27.10;;
2313;SDS011;42279;51.388;7.000;2023-04-29T03:22:18;49.40;;;26.73;;
2313;SDS011;42279;51.388;7.000;2023-04-29T03:24:44;48.20;;;25.50;;
2313;SDS011;42279;51.388;7.000;2023-04-29T03:27:10;60.30;;;28.20;;
2313;SDS011;42279;51.388;7.000;2023-04-29T03:29:36;47.50;;;26.33;;
2313;SDS011;42279;51.388;7.000;2023-04-29T03:32:02;45.40;;;25.60;;
2313;SDS011;42279;51.388;7.000;2023-04-29T03:34:29;44.27;;;24.07;;
2313;SDS011;42279;51.388;7.000;2023-04-29T03:36:55;53.95;;;30.67;;
2313;SDS011;42279;51.388;7.000;2023-04-29T03:39:21;50.37;;;25.17;;
2313;SDS011;42279;51.388;7.000;2023-04-29T03:41:47;41.30;;;24.30;;
2313;SDS011;42279;51.388;7.000;2023-04-29T03:44:13;43.70;;;23.30;;
2313;SDS011;42279;51.388;7.000;2023-04-29T03:46:39;51.67;;;26.53;;
2313;SDS011;42279;51.388;7.000;2023-04-29T03:49:05;43.37;;;26.50;;
2313;SDS011;42279;51.388;7.000;2023-04-29T03:51:32;42.43;;;24.50;;
2313;SDS011;42279;51.388;7.000;2023-04-29T03:53:58;44.90;;;24.60;;
2313;SDS011;42279;51.388;7.000;2023-04-29T03:56:24;38.40;;;23.40;;
2313;SDS011;42279;51.388;7.000;2023-04-29T03:58:50;37.17;;;23.77;;
2313;SDS011;42279;51.388;7.000;2023-04-29T04:01:16;37.93;;;22.53;;
2313;SDS011;42279;51.388;7.000;2023-04-29T04:03:43;42.20;;;23.17;;
2313;SDS011;42279;51.388;7.000;2023-04-29T04:06:09;36.97;;;22.70;;
2313;SDS011;42279;51.388;7.000;2023-04-29T04:08:35;41.37;;;23.20;;
2313;SDS011;42279;51.388;7.000;2023-04-29T04:11:01;46.07;;;24.67;;
2313;SDS011;42279;51.388;7.000;2023-04-29T04:13:28;41.53;;;24.57;;
2313;SDS011;42279;51.388;7.000;2023-04-29T04:15:54;41.63;;;24.10;;
2313;SDS011;42279;51.388;7.000;2023-04-29T04:18:20;42.60;;;22.90;;
2313;SDS011;42279;51.388;7.000;2023-04-29T04:20:46;42.97;;;24.00;;
2313;SDS011;42279;51.388;7.000;2023-04-29T04:23:12;44.50;;;23.87;;
2313;SDS011;42279;51.388;7.000;2023-04-29T04:25:47;43.67;;;23.27;;
2313;SDS011;42279;51.388;7.000;2023-04-29T04:28:13;42.10;;;25.03;;
2313;SDS011;42279;51.388;7.000;2023-04-29T04:30:40;41.53;;;23.97;;
2313;SDS011;42279;51.388;7.000;2023-04-29T04:33:06;43.47;;;28.90;;
2313;SDS011;42279;51.388;7.000;2023-04-29T04:35:33;40.97;;;23.77;;
2313;SDS011;42279;51.388;7.000;2023-04-29T04:37:59;41.83;;;24.30;;
2313;SDS011;42279;51.388;7.000;2023-04-29T04:40:25;38.20;;;19.87;;
2313;SDS011;42279;51.388;7.000;2023-04-29T04:42:51;37.77;;;24.67;;
2313;SDS011;42279;51.388;7.000;2023-04-29T04:45:17;38.40;;;22.00;;
2313;SDS011;42279;51.388;7.000;2023-04-29T04:47:43;33.47;;;19.60;;
2313;SDS011;42279;51.388;7.000;2023-04-29T04:50:09;37.47;;;20.80;;
2313;SDS011;42279;51.388;7.000;2023-04-29T04:52:35;32.77;;;21.33;;
2313;SDS011;42279;51.388;7.000;2023-04-29T04:55:02;37.37;;;22.47;;
2313;SDS011;42279;51.388;7.000;2023-04-29T04:57:28;32.60;;;20.30;;
2313;SDS011;42279;51.388;7.000;2023-04-29T04:59:54;32.77;;;20.03;;
2313;SDS011;42279;51.388;7.000;2023-04-29T05:02:20;31.77;;;19.37;;
2313;SDS011;42279;51.388;7.000;2023-04-29T05:04:46;31.67;;;20.23;;
2313;SDS011;42279;51.388;7.000;2023-04-29T05:07:12;35.23;;;21.70;;
2313;SDS011;42279;51.388;7.000;2023-04-29T05:09:38;35.03;;;21.50;;
2313;SDS011;42279;51.388;7.000;2023-04-29T05:12:04;33.03;;;19.77;;
2313;SDS011;42279;51.388;7.000;2023-04-29T05:14:30;37.87;;;21.90;;
2313;SDS011;42279;51.388;7.000;2023-04-29T05:16:59;33.23;;;19.00;;
2313;SDS011;42279;51.388;7.000;2023-04-29T05:19:25;35.33;;;20.20;;
2313;SDS011;42279;51.388;7.000;2023-04-29T05:21:51;34.53;;;22.53;;
2313;SDS011;42279;51.388;7.000;2023-04-29T05:24:17;33.27;;;22.13;;
2313;SDS011;42279;51.388;7.000;2023-04-29T05:26:43;33.70;;;21.23;;
2313;SDS011;42279;51.388;7.000;2023-04-29T05:29:10;28.17;;;19.47;;
2313;SDS011;42279;51.388;7.000;2023-04-29T05:31:36;37.67;;;24.65;;
2313;SDS011;42279;51.388;7.000;2023-04-29T05:34:03;30.00;;;19.90;;
2313;SDS011;42279;51.388;7.000;2023-04-29T05:36:29;32.57;;;18.90;;
2313;SDS011;42279;51.388;7.000;2023-04-29T05:38:55;34.23;;;21.00;;
2313;SDS011;42279;51.388;7.000;2023-04-29T05:41:21;26.67;;;19.23;;
2313;SDS011;42279;51.388;7.000;2023-04-29T05:43:48;31.27;;;21.30;;
2313;SDS011;42279;51.388;7.000;2023-04-29T05:46:15;33.40;;;20.90;;
2313;SDS011;42279;51.388;7.000;2023-04-29T05:48:42;28.93;;;18.93;;
2313;SDS011;42279;51.388;7.000;2023-04-29T05:51:08;32.07;;;20.87;;
2313;SDS011;42279;51.388;7.000;2023-04-29T05:53:34;29.50;;;18.80;;
2313;SDS011;42279;51.388;7.000;2023-04-29T05:56:02;27.63;;;19.20;;
2313;SDS011;42279;51.388;7.000;2023-04-29T05:58:32;25.90;;;19.67;;
2313;SDS011;42279;51.388;7.000;2023-04-29T06:00:58;27.30;;;18.67;;
2313;SDS011;42279;51.388;7.000;2023-04-29T06:03:24;27.53;;;19.70;;
2313;SDS011;42279;51.388;7.000;2023-04-29T06:05:50;31.13;;;20.83;;
2313;SDS011;42279;51.388;7.000;2023-04-29T06:08:16;28.47;;;21.00;;
2313;SDS011;42279;51.388;7.000;2023-04-29T06:10:42;28.60;;;18.97;;
2313;SDS011;42279;51.388;7.000;2023-04-29T06:13:08;30.47;;;19.80;;
2313;SDS011;42279;51.388;7.000;2023-04-29T06:15:34;31.00;;;20.97;;
2313;SDS011;42279;51.388;7.000;2023-04-29T06:18:00;33.87;;;20.43;;
2313;SDS011;42279;51.388;7.000;2023-04-29T06:20:26;30.47;;;20.13;;
2313;SDS011;42279;51.388;7.000;2023-04-29T06:22:52;27.93;;;21.07;;
2313;SDS011;42279;51.388;7.000;2023-04-29T06:25:18;28.93;;;20.00;;
2313;SDS011;42279;51.388;7.000;2023-04-29T06:27:44;32.22;;;23.23;;
2313;SDS011;42279;51.388;7.000;2023-04-29T06:30:11;32.88;;;23.58;;
2313;SDS011;42279;51.388;7.000;2023-04-29T06:32:40;31.73;;;24.65;;
2313;SDS011;42279;51.388;7.000;2023-04-29T06:35:06;32.03;;;20.37;;
2313;SDS011;42279;51.388;7.000;2023-04-29T06:37:32;26.10;;;17.67;;
2313;SDS011;42279;51.388;7.000;2023-04-29T06:39:58;31.47;;;18.87;;
2313;SDS011;42279;51.388;7.000;2023-04-29T06:42:24;28.90;;;20.37;;
2313;SDS011;42279;51.388;7.000;2023-04-29T06:44:50;35.30;;;20.70;;
2313;SDS011;42279;51.388;7.000;2023-04-29T06:47:16;24.03;;;19.00;;
2313;SDS011;42279;51.388;7.000;2023-04-29T06:49:42;30.10;;;21.33;;
2313;SDS011;42279;51.388;7.000;2023-04-29T06:52:08;32.80;;;21.80;;
2313;SDS011;42279;51.388;7.000;2023-04-29T06:54:34;30.70;;;21.83;;
2313;SDS011;42279;51.388;7.000;2023-04-29T06:57:00;33.13;;;24.95;;
2313;SDS011;42279;51.388;7.000;2023-04-29T06:59:26;26.97;;;20.27;;
2313;SDS011;42279;51.388;7.000;2023-04-29T07:01:52;27.73;;;19.23;;
2313;SDS011;42279;51.388;7.000;2023-04-29T07:04:18;27.60;;;21.27;;
2313;SDS011;42279;51.388;7.000;2023-04-29T07:06:44;28.77;;;20.17;;
2313;SDS011;42279;51.388;7.000;2023-04-29T07:09:14;29.07;;;20.30;;
2313;SDS011;42279;51.388;7.000;2023-04-29T07:11:40;30.57;;;20.40;;
2313;SDS011;42279;51.388;7.000;2023-04-29T07:14:06;28.90;;;20.10;;
2313;SDS011;42279;51.388;7.000;2023-04-29T07:16:32;30.13;;;21.70;;
2313;SDS011;42279;51.388;7.000;2023-04-29T07:18:59;24.23;;;18.90;;
2313;SDS011;42279;51.388;7.000;2023-04-29T07:21:25;25.37;;;20.57;;
2313;SDS011;42279;51.388;7.000;2023-04-29T07:23:51;26.70;;;20.00;;
2313;SDS011;42279;51.388;7.000;2023-04-29T07:26:19;20.87;;;17.10;;
2313;SDS011;42279;51.388;7.000;2023-04-29T07:28:46;23.70;;;18.90;;
2313;SDS011;42279;51.388;7.000;2023-04-29T07:31:13;23.53;;;18.13;;
2313;SDS011;42279;51.388;7.000;2023-04-29T07:33:39;23.27;;;18.37;;
2313;SDS011;42279;51.388;7.000;2023-04-29T07:36:05;27.67;;;17.67;;
2313;SDS011;42279;51.388;7.000;2023-04-29T07:38:31;24.63;;;18.40;;
2313;SDS011;42279;51.388;7.000;2023-04-29T07:40:58;22.63;;;18.87;;
2313;SDS011;42279;51.388;7.000;2023-04-29T07:43:24;27.23;;;19.17;;
2313;SDS011;42279;51.388;7.000;2023-04-29T07:45:50;29.90;;;18.53;;
2313;SDS011;42279;51.388;7.000;2023-04-29T07:48:16;25.20;;;17.23;;
2313;SDS011;42279;51.388;7.000;2023-04-29T07:50:42;26.50;;;18.93;;
2313;SDS011;42279;51.388;7.000;2023-04-29T07:53:08;32.60;;;19.73;;
2313;SDS011;42279;51.388;7.000;2023-04-29T07:55:35;26.60;;;19.77;;
2313;SDS011;42279;51.388;7.000;2023-04-29T07:58:01;26.20;;;19.00;;
2313;SDS011;42279;51.388;7.000;2023-04-29T08:00:27;28.03;;;21.40;;
2313;SDS011;42279;51.388;7.000;2023-04-29T08:02:54;34.73;;;22.60;;
2313;SDS011;42279;51.388;7.000;2023-04-29T08:05:21;37.80;;;23.60;;
2313;SDS011;42279;51.388;7.000;2023-04-29T08:07:47;30.90;;;20.00;;
2313;SDS011;42279;51.388;7.000;2023-04-29T08:10:13;32.97;;;23.80;;
2313;SDS011;42279;51.388;7.000;2023-04-29T08:12:39;35.10;;;23.43;;
2313;SDS011;42279;51.388;7.000;2023-04-29T08:15:06;34.57;;;22.90;;
2313;SDS011;42279;51.388;7.000;2023-04-29T08:17:32;33.07;;;23.90;;
2313;SDS011;42279;51.388;7.000;2023-04-29T08:19:58;33.80;;;22.63;;
2313;SDS011;42279;51.388;7.000;2023-04-29T08:22:24;35.33;;;23.60;;
2313;SDS011;42279;51.388;7.000;2023-04-29T08:24:50;32.20;;;23.20;;
2313;SDS011;42279;51.388;7.000;2023-04-29T08:27:16;34.93;;;24.83;;
2313;SDS011;42279;51.388;7.000;2023-04-29T08:29:42;39.60;;;24.70;;
2313;SDS011;42279;51.388;7.000;2023-04-29T08:32:08;40.03;;;26.00;;
2313;SDS011;42279;51.388;7.000;2023-04-29T08:34:34;39.13;;;27.00;;
2313;SDS011;42279;51.388;7.000;2023-04-29T08:37:00;43.53;;;26.27;;
2313;SDS011;42279;51.388;7.000;2023-04-29T08:39:27;38.80;;;26.40;;
2313;SDS011;42279;51.388;7.000;2023-04-29T08:41:55;38.30;;;24.43;;
2313;SDS011;42279;51.388;7.000;2023-04-29T08:44:21;36.20;;;23.80;;
2313;SDS011;42279;51.388;7.000;2023-04-29T08:46:47;46.97;;;26.60;;
2313;SDS011;42279;51.388;7.000;2023-04-29T08:49:14;42.20;;;24.20;;
2313;SDS011;42279;51.388;7.000;2023-04-29T08:51:40;41.73;;;24.97;;
2313;SDS011;42279;51.388;7.000;2023-04-29T08:54:06;45.83;;;27.80;;
2313;SDS011;42279;51.388;7.000;2023-04-29T08:56:32;40.13;;;27.50;;
2313;SDS011;42279;51.388;7.000;2023-04-29T08:58:58;43.10;;;26.53;;
2313;SDS011;42279;51.388;7.000;2023-04-29T09:01:26;48.57;;;26.93;;
2313;SDS011;42279;51.388;7.000;2023-04-29T09:03:54;39.37;;;24.93;;
2313;SDS011;42279;51.388;7.000;2023-04-29T09:06:21;38.23;;;25.60;;
2313;SDS011;42279;51.388;7.000;2023-04-29T09:08:47;53.83;;;27.80;;
2313;SDS011;42279;51.388;7.000;2023-04-29T09:11:13;36.63;;;26.23;;
2313;SDS011;42279;51.388;7.000;2023-04-29T09:13:40;39.17;;;24.83;;
2313;SDS011;42279;51.388;7.000;2023-04-29T09:16:09;42.60;;;27.47;;
2313;SDS011;42279;51.388;7.000;2023-04-29T09:18:43;45.43;;;27.50;;
2313;SDS011;42279;51.388;7.000;2023-04-29T09:21:19;47.30;;;27.83;;
2313;SDS011;42279;51.388;7.000;2023-04-29T09:23:46;44.93;;;28.40;;
2313;SDS011;42279;51.388;7.000;2023-04-29T09:26:13;53.90;;;28.83;;
2313;SDS011;42279;51.388;7.000;2023-04-29T09:28:39;47.73;;;29.93;;
2313;SDS011;42279;51.388;7.000;2023-04-29T09:31:07;47.93;;;31.30;;
2313;SDS011;42279;51.388;7.000;2023-04-29T09:36:34;46.07;;;29.43;;
2313;SDS011;42279;51.388;7.000;2023-04-29T09:39:01;51.87;;;32.33;;
2313;SDS011;42279;51.388;7.000;2023-04-29T09:41:27;53.60;;;34.23;;
2313;SDS011;42279;51.388;7.000;2023-04-29T09:44:02;53.07;;;31.93;;
2313;SDS011;42279;51.388;7.000;2023-04-29T09:46:32;48.27;;;30.57;;
2313;SDS011;42279;51.388;7.000;2023-04-29T09:48:59;52.30;;;34.87;;
2313;SDS011;42279;51.388;7.000;2023-04-29T09:51:25;50.60;;;32.70;;
2313;SDS011;42279;51.388;7.000;2023-04-29T09:53:51;52.30;;;34.50;;
2313;SDS011;42279;51.388;7.000;2023-04-29T09:56:17;49.80;;;35.30;;
2313;SDS011;42279;51.388;7.000;2023-04-29T09:58:43;65.03;;;38.83;;
2313;SDS011;42279;51.388;7.000;2023-04-29T10:01:09;54.07;;;35.00;;
2313;SDS011;42279;51.388;7.000;2023-04-29T10:03:38;54.65;;;41.70;;
2313;SDS011;42279;51.388;7.000;2023-04-29T10:06:05;65.47;;;36.23;;
2313;SDS011;42279;51.388;7.000;2023-04-29T10:08:31;50.23;;;36.03;;
2313;SDS011;42279;51.388;7.000;2023-04-29T10:10:58;55.00;;;35.07;;
2313;SDS011;42279;51.388;7.000;2023-04-29T10:13:25;55.50;;;31.50;;
2313;SDS011;42279;51.388;7.000;2023-04-29T10:18:35;49.40;;;33.90;;
2313;SDS011;42279;51.388;7.000;2023-04-29T10:21:02;48.77;;;31.80;;
2313;SDS011;42279;51.388;7.000;2023-04-29T10:23:31;46.13;;;31.30;;
2313;SDS011;42279;51.388;7.000;2023-04-29T10:25:58;51.07;;;33.73;;
2313;SDS011;42279;51.388;7.000;2023-04-29T10:28:24;45.50;;;29.83;;
2313;SDS011;42279;51.388;7.000;2023-04-29T10:30:50;42.50;;;29.60;;
2313;SDS011;42279;51.388;7.000;2023-04-29T10:33:18;38.83;;;29.73;;
2313;SDS011;42279;51.388;7.000;2023-04-29T10:35:47;37.80;;;29.20;;
2313;SDS011;42279;51.388;7.000;2023-04-29T10:38:20;45.90;;;30.87;;
2313;SDS011;42279;51.388;7.000;2023-04-29T10:40:48;34.67;;;27.00;;
2313;SDS011;42279;51.388;7.000;2023-04-29T10:43:16;35.47;;;27.77;;
2313;SDS011;42279;51.388;7.000;2023-04-29T10:45:47;38.70;;;29.20;;
2313;SDS011;42279;51.388;7.000;2023-04-29T10:48:13;42.53;;;29.30;;
2313;SDS011;42279;51.388;7.000;2023-04-29T10:53:12;36.70;;;27.17;;
2313;SDS011;42279;51.388;7.000;2023-04-29T10:55:39;40.10;;;29.27;;
2313;SDS011;42279;51.388;7.000;2023-04-29T10:58:05;39.77;;;29.17;;
2313;SDS011;42279;51.388;7.000;2023-04-29T11:00:32;40.57;;;28.17;;
2313;SDS011;42279;51.388;7.000;2023-04-29T11:02:59;40.37;;;30.27;;
2313;SDS011;42279;51.388;7.000;2023-04-29T11:05:32;42.47;;;31.00;;
2313;SDS011;42279;51.388;7.000;2023-04-29T11:08:18;40.37;;;30.27;;
2313;SDS011;42279;51.388;7.000;2023-04-29T11:10:51;45.27;;;28.53;;
2313;SDS011;42279;51.388;7.000;2023-04-29T11:16:08;36.40;;;29.30;;
2313;SDS011;42279;51.388;7.000;2023-04-29T11:18:35;32.77;;;27.60;;
2313;SDS011;42279;51.388;7.000;2023-04-29T11:23:37;30.13;;;26.83;;
2313;SDS011;42279;51.388;7.000;2023-04-29T11:26:05;30.63;;;27.27;;
2313;SDS011;42279;51.388;7.000;2023-04-29T11:28:31;28.77;;;25.73;;
2313;SDS011;42279;51.388;7.000;2023-04-29T11:30:57;28.40;;;24.90;;
2313;SDS011;42279;51.388;7.000;2023-04-29T11:33:24;31.30;;;26.40;;
2313;SDS011;42279;51.388;7.000;2023-04-29T11:35:51;27.13;;;24.23;;
2313;SDS011;42279;51.388;7.000;2023-04-29T11:38:22;29.80;;;26.87;;
2313;SDS011;42279;51.388;7.000;2023-04-29T11:40:49;28.63;;;26.00;;
2313;SDS011;42279;51.388;7.000;2023-04-29T11:43:18;30.73;;;27.73;;
2313;SDS011;42279;51.388;7.000;2023-04-29T11:45:45;29.50;;;26.47;;
2313;SDS011;42279;51.388;7.000;2023-04-29T11:48:24;32.40;;;28.20;;
2313;SDS011;42279;51.388;7.000;2023-04-29T11:50:51;30.87;;;27.77;;
2313;SDS011;42279;51.388;7.000;2023-04-29T11:53:22;30.97;;;27.80;;
2313;SDS011;42279;51.388;7.000;2023-04-29T11:55:49;31.00;;;27.87;;
2313;SDS011;42279;51.388;7.000;2023-04-29T11:58:19;30.80;;;27.80;;
2313;SDS011;42279;51.388;7.000;2023-04-29T12:00:48;30.93;;;27.50;;
2313;SDS011;42279;51.388;7.000;2023-04-29T12:03:19;34.97;;;27.70;;
2313;SDS011;42279;51.388;7.000;2023-04-29T12:05:51;32.33;;;28.87;;
2313;SDS011;42279;51.388;7.000;2023-04-29T12:08:21;30.33;;;27.33;;
2313;SDS011;42279;51.388;7.000;2023-04-29T12:10:47;31.10;;;27.90;;
2313;SDS011;42279;51.388;7.000;2023-04-29T12:13:14;31.83;;;28.63;;
2313;SDS011;42279;51.388;7.000;2023-04-29T12:15:41;30.17;;;27.30;;
2313;SDS011;42279;51.388;7.000;2023-04-29T12:18:07;32.30;;;29.30;;
2313;SDS011;42279;51.388;7.000;2023-04-29T12:20:33;30.77;;;28.07;;
2313;SDS011;42279;51.388;7.000;2023-04-29T12:23:15;31.27;;;28.03;;
2313;SDS011;42279;51.388;7.000;2023-04-29T12:25:46;31.07;;;28.13;;
2313;SDS011;42279;51.388;7.000;2023-04-29T12:28:13;31.50;;;28.10;;
2313;SDS011;42279;51.388;7.000;2023-04-29T12:30:40;29.00;;;26.23;;
2313;SDS011;42279;51.388;7.000;2023-04-29T12:33:08;29.20;;;26.37;;
2313;SDS011;42279;51.388;7.000;2023-04-29T12:35:35;30.20;;;26.90;;
2313;SDS011;42279;51.388;7.000;2023-04-29T12:38:01;27.87;;;25.30;;
2313;SDS011;42279;51.388;7.000;2023-04-29T12:40:27;28.73;;;26.00;;
2313;SDS011;42279;51.388;7.000;2023-04-29T12:42:53;26.40;;;24.07;;
2313;SDS011;42279;51.388;7.000;2023-04-29T12:45:29;25.43;;;23.17;;
2313;SDS011;42279;51.388;7.000;2023-04-29T12:47:56;25.90;;;23.43;;
2313;SDS011;42279;51.388;7.000;2023-04-29T12:50:35;27.27;;;24.53;;
2313;SDS011;42279;51.388;7.000;2023-04-29T12:53:05;27.20;;;24.70;;
2313;SDS011;42279;51.388;7.000;2023-04-29T12:55:32;26.03;;;23.53;;
2313;SDS011;42279;51.388;7.000;2023-04-29T12:57:58;26.27;;;23.77;;
2313;SDS011;42279;51.388;7.000;2023-04-29T13:00:24;24.17;;;21.57;;
2313;SDS011;42279;51.388;7.000;2023-04-29T13:02:51;19.30;;;17.70;;
2313;SDS011;42279;51.388;7.000;2023-04-29T13:05:17;23.60;;;21.10;;
2313;SDS011;42279;51.388;7.000;2023-04-29T13:07:43;19.37;;;17.70;;
2313;SDS011;42279;51.388;7.000;2023-04-29T13:10:09;18.97;;;17.37;;
2313;SDS011;42279;51.388;7.000;2023-04-29T13:12:36;19.90;;;18.23;;
2313;SDS011;42279;51.388;7.000;2023-04-29T13:15:03;18.80;;;16.80;;
2313;SDS011;42279;51.388;7.000;2023-04-29T13:17:29;20.07;;;17.97;;
2313;SDS011;42279;51.388;7.000;2023-04-29T13:19:56;18.90;;;16.90;;
2313;SDS011;42279;51.388;7.000;2023-04-29T13:22:22;31.40;;;25.23;;
2313;SDS011;42279;51.388;7.000;2023-04-29T13:24:48;18.87;;;17.17;;
2313;SDS011;42279;51.388;7.000;2023-04-29T13:27:14;19.00;;;17.27;;
2313;SDS011;42279;51.388;7.000;2023-04-29T13:29:40;18.33;;;16.70;;
2313;SDS011;42279;51.388;7.000;2023-04-29T13:32:06;17.90;;;16.40;;
2313;SDS011;42279;51.388;7.000;2023-04-29T13:34:32;19.23;;;17.50;;
2313;SDS011;42279;51.388;7.000;2023-04-29T13:36:58;18.70;;;17.00;;
2313;SDS011;42279;51.388;7.000;2023-04-29T13:39:24;17.20;;;15.80;;
2313;SDS011;42279;51.388;7.000;2023-04-29T13:41:50;17.70;;;16.27;;
2313;SDS011;42279;51.388;7.000;2023-04-29T13:44:16;14.07;;;12.93;;
2313;SDS011;42279;51.388;7.000;2023-04-29T13:46:42;14.00;;;12.93;;
2313;SDS011;42279;51.388;7.000;2023-04-29T13:49:10;12.50;;;11.50;;
2313;SDS011;42279;51.388;7.000;2023-04-29T13:51:36;11.77;;;10.77;;
2313;SDS011;42279;51.388;7.000;2023-04-29T13:54:02;14.23;;;12.53;;
2313;SDS011;42279;51.388;7.000;2023-04-29T13:56:28;13.03;;;12.03;;
2313;SDS011;42279;51.388;7.000;2023-04-29T13:58:54;16.60;;;13.13;;
2313;SDS011;42279;51.388;7.000;2023-04-29T14:01:20;13.60;;;12.30;;
2313;SDS011;42279;51.388;7.000;2023-04-29T14:03:47;11.97;;;11.00;;
2313;SDS011;42279;51.388;7.000;2023-04-29T14:06:13;16.43;;;15.03;;
2313;SDS011;42279;51.388;7.000;2023-04-29T14:08:40;13.50;;;12.30;;
2313;SDS011;42279;51.388;7.000;2023-04-29T14:11:06;14.10;;;13.00;;
2313;SDS011;42279;51.388;7.000;2023-04-29T14:13:32;12.53;;;11.30;;
2313;SDS011;42279;51.388;7.000;2023-04-29T14:15:58;13.60;;;12.40;;
2313;SDS011;42279;51.388;7.000;2023-04-29T14:18:27;11.70;;;10.70;;
2313;SDS011;42279;51.388;7.000;2023-04-29T14:20:54;11.97;;;10.93;;
2313;SDS011;42279;51.388;7.000;2023-04-29T14:23:21;13.93;;;11.83;;
2313;SDS011;42279;51.388;7.000;2023-04-29T14:25:47;13.77;;;12.57;;
2313;SDS011;42279;51.388;7.000;2023-04-29T14:28:13;14.20;;;13.00;;
2313;SDS011;42279;51.388;7.000;2023-04-29T14:30:39;12.50;;;11.23;;
2313;SDS011;42279;51.388;7.000;2023-04-29T14:33:07;11.43;;;10.07;;
2313;SDS011;42279;51.388;7.000;2023-04-29T14:35:33;11.77;;;10.70;;
2313;SDS011;42279;51.388;7.000;2023-04-29T14:37:59;13.15;;;12.05;;
2313;SDS011;42279;51.388;7.000;2023-04-29T14:40:25;11.53;;;10.73;;
2313;SDS011;42279;51.388;7.000;2023-04-29T14:42:51;11.97;;;11.07;;
2313;SDS011;42279;51.388;7.000;2023-04-29T14:45:17;13.13;;;12.07;;
2313;SDS011;42279;51.388;7.000;2023-04-29T14:47:43;12.90;;;11.57;;
2313;SDS011;42279;51.388;7.000;2023-04-29T14:50:10;13.37;;;12.30;;
2313;SDS011;42279;51.388;7.000;2023-04-29T14:52:36;14.30;;;12.80;;
2313;SDS011;42279;51.388;7.000;2023-04-29T14:55:02;13.43;;;12.13;;